sensor_id;sensor_type;location;lat;lon;timestamp;P1;durP1;ratioP1;P2;durP2;ratioP2
6019;SDS011;3038;51.122;6.840;2023-06-26T00:01:15;13.83;;;12.63;;
6019;SDS011;3038;51.122;6.840;2023-06-26T00:03:40;12.03;;;11.03;;
6019;SDS011;3038;51.122;6.840;2023-06-26T00:06:06;11.87;;;10.87;;
6019;SDS011;3038;51.122;6.840;2023-06-26T00:08:32;11.50;;;10.60;;
6019;SDS011;3038;51.122;6.840;2023-06-26T00:10:58;13.17;;;12.07;;
6019;SDS011;3038;51.122;6.840;2023-06-26T00:13:23;13.77;;;12.37;;
6019;SDS011;3038;51.122;6.840;2023-06-26T00:15:50;12.73;;;11.63;;
6019;SDS011;3038;51.122;6.840;2023-06-26T00:18:16;12.27;;;11.27;;
6019;SDS011;3038;51.122;6.840;2023-06-26T00:20:41;13.10;;;12.10;;
6019;SDS011;3038;51.122;6.840;2023-06-26T00:23:06;13.23;;;12.07;;
6019;SDS011;3038;51.122;6.840;2023-06-26T00:25:35;13.00;;;11.70;;
6019;SDS011;3038;51.122;6.840;2023-06-26T00:28:01;13.50;;;12.33;;
6019;SDS011;3038;51.122;6.840;2023-06-26T00:30:26;12.97;;;11.97;;
6019;SDS011;3038;51.122;6.840;2023-06-26T00:32:52;13.07;;;11.87;;
6019;SDS011;3038;51.122;6.840;2023-06-26T00:35:17;13.97;;;12.77;;
6019;SDS011;3038;51.122;6.840;2023-06-26T00:37:43;12.97;;;11.87;;
6019;SDS011;3038;51.122;6.840;2023-06-26T00:40:08;14.27;;;13.10;;
6019;SDS011;3038;51.122;6.840;2023-06-26T00:42:34;13.17;;;12.07;;
6019;SDS011;3038;51.122;6.840;2023-06-26T00:45:00;13.00;;;12.00;;
6019;SDS011;3038;51.122;6.840;2023-06-26T00:47:25;14.93;;;13.63;;
6019;SDS011;3038;51.122;6.840;2023-06-26T00:49:52;14.20;;;13.10;;
6019;SDS011;3038;51.122;6.840;2023-06-26T00:52:19;14.03;;;12.93;;
6019;SDS011;3038;51.122;6.840;2023-06-26T00:54:45;14.07;;;12.97;;
6019;SDS011;3038;51.122;6.840;2023-06-26T00:57:11;14.10;;;12.90;;
6019;SDS011;3038;51.122;6.840;2023-06-26T00:59:36;13.70;;;12.57;;
6019;SDS011;3038;51.122;6.840;2023-06-26T01:02:03;12.90;;;11.90;;
6019;SDS011;3038;51.122;6.840;2023-06-26T01:04:28;13.80;;;12.50;;
6019;SDS011;3038;51.122;6.840;2023-06-26T01:06:57;13.80;;;12.70;;
6019;SDS011;3038;51.122;6.840;2023-06-26T01:09:23;13.70;;;12.60;;
6019;SDS011;3038;51.122;6.840;2023-06-26T01:11:49;13.20;;;11.80;;
6019;SDS011;3038;51.122;6.840;2023-06-26T01:14:15;14.90;;;13.50;;
6019;SDS011;3038;51.122;6.840;2023-06-26T01:16:41;13.40;;;12.40;;
6019;SDS011;3038;51.122;6.840;2023-06-26T01:19:13;13.47;;;12.37;;
6019;SDS011;3038;51.122;6.840;2023-06-26T01:22:17;14.83;;;13.63;;
6019;SDS011;3038;51.122;6.840;2023-06-26T01:24:53;15.60;;;13.87;;
6019;SDS011;3038;51.122;6.840;2023-06-26T01:27:28;13.80;;;12.70;;
6019;SDS011;3038;51.122;6.840;2023-06-26T01:29:57;15.70;;;14.30;;
6019;SDS011;3038;51.122;6.840;2023-06-26T01:32:25;14.03;;;12.93;;
6019;SDS011;3038;51.122;6.840;2023-06-26T01:34:51;14.40;;;13.20;;
6019;SDS011;3038;51.122;6.840;2023-06-26T01:37:17;15.37;;;13.57;;
6019;SDS011;3038;51.122;6.840;2023-06-26T01:39:42;16.60;;;15.20;;
6019;SDS011;3038;51.122;6.840;2023-06-26T01:42:08;14.47;;;13.17;;
6019;SDS011;3038;51.122;6.840;2023-06-26T01:44:35;14.13;;;12.93;;
6019;SDS011;3038;51.122;6.840;2023-06-26T01:47:06;14.00;;;12.90;;
6019;SDS011;3038;51.122;6.840;2023-06-26T01:52:40;13.70;;;12.63;;
6019;SDS011;3038;51.122;6.840;2023-06-26T01:57:54;14.43;;;13.07;;
6019;SDS011;3038;51.122;6.840;2023-06-26T02:00:22;14.67;;;13.47;;
6019;SDS011;3038;51.122;6.840;2023-06-26T02:02:49;14.43;;;13.23;;
6019;SDS011;3038;51.122;6.840;2023-06-26T02:05:15;17.30;;;13.97;;
6019;SDS011;3038;51.122;6.840;2023-06-26T02:07:40;14.10;;;13.00;;
6019;SDS011;3038;51.122;6.840;2023-06-26T02:10:06;13.40;;;12.30;;
6019;SDS011;3038;51.122;6.840;2023-06-26T02:12:32;14.67;;;13.33;;
6019;SDS011;3038;51.122;6.840;2023-06-26T02:14:58;13.57;;;12.47;;
6019;SDS011;3038;51.122;6.840;2023-06-26T02:17:24;14.07;;;12.87;;
6019;SDS011;3038;51.122;6.840;2023-06-26T02:19:49;15.87;;;14.50;;
6019;SDS011;3038;51.122;6.840;2023-06-26T02:22:15;12.77;;;11.77;;
6019;SDS011;3038;51.122;6.840;2023-06-26T02:24:41;13.30;;;12.20;;
6019;SDS011;3038;51.122;6.840;2023-06-26T02:27:07;13.07;;;12.00;;
6019;SDS011;3038;51.122;6.840;2023-06-26T02:29:33;14.30;;;13.07;;
6019;SDS011;3038;51.122;6.840;2023-06-26T02:31:58;13.33;;;12.13;;
6019;SDS011;3038;51.122;6.840;2023-06-26T02:34:23;12.90;;;11.70;;
6019;SDS011;3038;51.122;6.840;2023-06-26T02:36:49;12.10;;;11.10;;
6019;SDS011;3038;51.122;6.840;2023-06-26T02:39:14;11.23;;;10.37;;
6019;SDS011;3038;51.122;6.840;2023-06-26T02:41:40;12.73;;;11.67;;
6019;SDS011;3038;51.122;6.840;2023-06-26T02:44:05;11.60;;;10.67;;
6019;SDS011;3038;51.122;6.840;2023-06-26T02:46:32;12.53;;;11.37;;
6019;SDS011;3038;51.122;6.840;2023-06-26T02:48:58;12.83;;;11.73;;
6019;SDS011;3038;51.122;6.840;2023-06-26T02:51:23;12.30;;;11.10;;
6019;SDS011;3038;51.122;6.840;2023-06-26T02:53:49;13.27;;;12.07;;
6019;SDS011;3038;51.122;6.840;2023-06-26T02:56:14;12.27;;;11.27;;
6019;SDS011;3038;51.122;6.840;2023-06-26T02:58:39;13.97;;;12.77;;
6019;SDS011;3038;51.122;6.840;2023-06-26T03:01:05;13.33;;;12.13;;
6019;SDS011;3038;51.122;6.840;2023-06-26T03:03:30;12.57;;;11.50;;
6019;SDS011;3038;51.122;6.840;2023-06-26T03:05:55;12.27;;;11.30;;
6019;SDS011;3038;51.122;6.840;2023-06-26T03:08:21;12.50;;;11.43;;
6019;SDS011;3038;51.122;6.840;2023-06-26T03:10:47;12.00;;;11.10;;
6019;SDS011;3038;51.122;6.840;2023-06-26T03:13:12;11.33;;;10.43;;
6019;SDS011;3038;51.122;6.840;2023-06-26T03:15:38;13.20;;;12.00;;
6019;SDS011;3038;51.122;6.840;2023-06-26T03:18:03;12.43;;;11.27;;
6019;SDS011;3038;51.122;6.840;2023-06-26T03:20:28;13.03;;;11.83;;
6019;SDS011;3038;51.122;6.840;2023-06-26T03:22:54;13.47;;;12.20;;
6019;SDS011;3038;51.122;6.840;2023-06-26T03:25:19;11.93;;;10.83;;
6019;SDS011;3038;51.122;6.840;2023-06-26T03:27:45;13.70;;;12.07;;
6019;SDS011;3038;51.122;6.840;2023-06-26T03:30:10;13.10;;;12.00;;
6019;SDS011;3038;51.122;6.840;2023-06-26T03:32:36;11.53;;;10.60;;
6019;SDS011;3038;51.122;6.840;2023-06-26T03:35:02;11.50;;;10.40;;
6019;SDS011;3038;51.122;6.840;2023-06-26T03:37:28;12.70;;;11.60;;
6019;SDS011;3038;51.122;6.840;2023-06-26T03:39:54;12.43;;;11.20;;
6019;SDS011;3038;51.122;6.840;2023-06-26T03:42:19;11.60;;;10.37;;
6019;SDS011;3038;51.122;6.840;2023-06-26T03:44:44;12.20;;;11.10;;
6019;SDS011;3038;51.122;6.840;2023-06-26T03:47:10;11.97;;;11.00;;
6019;SDS011;3038;51.122;6.840;2023-06-26T03:49:35;10.73;;;9.83;;
6019;SDS011;3038;51.122;6.840;2023-06-26T03:52:00;10.80;;;9.90;;
6019;SDS011;3038;51.122;6.840;2023-06-26T03:54:26;12.73;;;11.17;;
6019;SDS011;3038;51.122;6.840;2023-06-26T03:56:51;13.27;;;12.07;;
6019;SDS011;3038;51.122;6.840;2023-06-26T03:59:17;14.13;;;10.40;;
6019;SDS011;3038;51.122;6.840;2023-06-26T04:01:42;10.00;;;9.10;;
6019;SDS011;3038;51.122;6.840;2023-06-26T04:04:07;11.53;;;10.53;;
6019;SDS011;3038;51.122;6.840;2023-06-26T04:06:33;11.80;;;10.80;;
6019;SDS011;3038;51.122;6.840;2023-06-26T04:08:58;13.10;;;11.73;;
6019;SDS011;3038;51.122;6.840;2023-06-26T04:11:24;10.20;;;9.10;;
6019;SDS011;3038;51.122;6.840;2023-06-26T04:13:50;10.83;;;9.80;;
6019;SDS011;3038;51.122;6.840;2023-06-26T04:16:16;11.73;;;9.27;;
6019;SDS011;3038;51.122;6.840;2023-06-26T04:18:41;10.40;;;9.50;;
6019;SDS011;3038;51.122;6.840;2023-06-26T04:21:08;10.37;;;9.57;;
6019;SDS011;3038;51.122;6.840;2023-06-26T04:23:36;9.63;;;8.63;;
6019;SDS011;3038;51.122;6.840;2023-06-26T04:26:01;10.20;;;9.40;;
6019;SDS011;3038;51.122;6.840;2023-06-26T04:28:28;10.53;;;9.63;;
6019;SDS011;3038;51.122;6.840;2023-06-26T04:30:53;10.10;;;9.10;;
6019;SDS011;3038;51.122;6.840;2023-06-26T04:33:19;10.50;;;9.47;;
6019;SDS011;3038;51.122;6.840;2023-06-26T04:35:44;9.87;;;9.03;;
6019;SDS011;3038;51.122;6.840;2023-06-26T04:38:13;11.10;;;9.70;;
6019;SDS011;3038;51.122;6.840;2023-06-26T04:40:39;9.33;;;8.50;;
6019;SDS011;3038;51.122;6.840;2023-06-26T04:43:04;9.63;;;8.63;;
6019;SDS011;3038;51.122;6.840;2023-06-26T04:45:30;9.97;;;9.10;;
6019;SDS011;3038;51.122;6.840;2023-06-26T04:47:55;9.83;;;8.93;;
6019;SDS011;3038;51.122;6.840;2023-06-26T04:50:21;9.87;;;8.87;;
6019;SDS011;3038;51.122;6.840;2023-06-26T04:52:47;10.97;;;10.00;;
6019;SDS011;3038;51.122;6.840;2023-06-26T04:55:13;11.27;;;10.27;;
6019;SDS011;3038;51.122;6.840;2023-06-26T04:57:38;11.23;;;10.33;;
6019;SDS011;3038;51.122;6.840;2023-06-26T05:00:03;10.63;;;9.53;;
6019;SDS011;3038;51.122;6.840;2023-06-26T05:02:35;10.60;;;9.70;;
6019;SDS011;3038;51.122;6.840;2023-06-26T05:05:00;10.77;;;9.77;;
6019;SDS011;3038;51.122;6.840;2023-06-26T05:07:26;11.00;;;10.07;;
6019;SDS011;3038;51.122;6.840;2023-06-26T05:09:51;11.00;;;9.97;;
6019;SDS011;3038;51.122;6.840;2023-06-26T05:12:17;12.97;;;9.70;;
6019;SDS011;3038;51.122;6.840;2023-06-26T05:14:42;10.60;;;9.57;;
6019;SDS011;3038;51.122;6.840;2023-06-26T05:17:07;9.97;;;9.07;;
6019;SDS011;3038;51.122;6.840;2023-06-26T05:19:33;10.03;;;9.13;;
6019;SDS011;3038;51.122;6.840;2023-06-26T05:21:58;10.73;;;9.60;;
6019;SDS011;3038;51.122;6.840;2023-06-26T05:24:26;11.17;;;8.20;;
6019;SDS011;3038;51.122;6.840;2023-06-26T05:26:52;10.70;;;9.50;;
6019;SDS011;3038;51.122;6.840;2023-06-26T05:29:18;9.93;;;8.60;;
6019;SDS011;3038;51.122;6.840;2023-06-26T05:31:43;9.70;;;8.77;;
6019;SDS011;3038;51.122;6.840;2023-06-26T05:34:11;9.63;;;8.67;;
6019;SDS011;3038;51.122;6.840;2023-06-26T05:36:38;8.57;;;7.77;;
6019;SDS011;3038;51.122;6.840;2023-06-26T05:39:06;9.37;;;8.57;;
6019;SDS011;3038;51.122;6.840;2023-06-26T05:41:32;8.30;;;7.60;;
6019;SDS011;3038;51.122;6.840;2023-06-26T05:43:57;9.13;;;8.33;;
6019;SDS011;3038;51.122;6.840;2023-06-26T05:46:22;8.40;;;7.70;;
6019;SDS011;3038;51.122;6.840;2023-06-26T05:48:48;10.77;;;7.37;;
6019;SDS011;3038;51.122;6.840;2023-06-26T05:51:13;10.10;;;8.27;;
6019;SDS011;3038;51.122;6.840;2023-06-26T05:53:39;9.77;;;7.23;;
6019;SDS011;3038;51.122;6.840;2023-06-26T05:56:04;16.70;;;8.97;;
6019;SDS011;3038;51.122;6.840;2023-06-26T05:58:30;9.10;;;7.07;;
6019;SDS011;3038;51.122;6.840;2023-06-26T06:01:01;21.63;;;7.17;;
6019;SDS011;3038;51.122;6.840;2023-06-26T06:03:27;8.83;;;7.37;;
6019;SDS011;3038;51.122;6.840;2023-06-26T06:05:52;7.67;;;6.97;;
6019;SDS011;3038;51.122;6.840;2023-06-26T06:08:17;8.10;;;7.30;;
6019;SDS011;3038;51.122;6.840;2023-06-26T06:10:43;9.20;;;7.67;;
6019;SDS011;3038;51.122;6.840;2023-06-26T06:13:08;10.00;;;7.50;;
6019;SDS011;3038;51.122;6.840;2023-06-26T06:15:33;10.90;;;7.63;;
6019;SDS011;3038;51.122;6.840;2023-06-26T06:17:59;8.73;;;7.87;;
6019;SDS011;3038;51.122;6.840;2023-06-26T06:20:25;13.93;;;7.50;;
6019;SDS011;3038;51.122;6.840;2023-06-26T06:22:50;8.57;;;7.67;;
6019;SDS011;3038;51.122;6.840;2023-06-26T06:25:15;7.83;;;7.10;;
6019;SDS011;3038;51.122;6.840;2023-06-26T06:27:41;10.10;;;8.20;;
6019;SDS011;3038;51.122;6.840;2023-06-26T06:30:06;7.80;;;6.53;;
6019;SDS011;3038;51.122;6.840;2023-06-26T06:32:33;9.90;;;7.53;;
6019;SDS011;3038;51.122;6.840;2023-06-26T06:34:58;11.10;;;7.40;;
6019;SDS011;3038;51.122;6.840;2023-06-26T06:37:24;10.40;;;7.40;;
6019;SDS011;3038;51.122;6.840;2023-06-26T06:39:49;11.67;;;6.77;;
6019;SDS011;3038;51.122;6.840;2023-06-26T06:42:14;8.23;;;7.43;;
6019;SDS011;3038;51.122;6.840;2023-06-26T06:44:40;8.90;;;8.10;;
6019;SDS011;3038;51.122;6.840;2023-06-26T06:47:05;8.63;;;7.77;;
6019;SDS011;3038;51.122;6.840;2023-06-26T06:49:31;8.80;;;7.20;;
6019;SDS011;3038;51.122;6.840;2023-06-26T06:51:56;9.30;;;8.30;;
6019;SDS011;3038;51.122;6.840;2023-06-26T06:54:21;9.90;;;7.33;;
6019;SDS011;3038;51.122;6.840;2023-06-26T06:56:47;12.20;;;8.27;;
6019;SDS011;3038;51.122;6.840;2023-06-26T06:59:12;10.50;;;7.93;;
6019;SDS011;3038;51.122;6.840;2023-06-26T07:01:38;7.53;;;6.73;;
6019;SDS011;3038;51.122;6.840;2023-06-26T07:04:05;7.53;;;6.50;;
6019;SDS011;3038;51.122;6.840;2023-06-26T07:06:30;8.13;;;7.30;;
6019;SDS011;3038;51.122;6.840;2023-06-26T07:08:56;7.30;;;6.60;;
6019;SDS011;3038;51.122;6.840;2023-06-26T07:11:21;11.93;;;8.73;;
6019;SDS011;3038;51.122;6.840;2023-06-26T07:13:46;9.20;;;7.33;;
6019;SDS011;3038;51.122;6.840;2023-06-26T07:16:12;11.47;;;7.90;;
6019;SDS011;3038;51.122;6.840;2023-06-26T07:18:38;7.30;;;6.60;;
6019;SDS011;3038;51.122;6.840;2023-06-26T07:21:03;7.57;;;6.70;;
6019;SDS011;3038;51.122;6.840;2023-06-26T07:23:29;8.70;;;7.67;;
6019;SDS011;3038;51.122;6.840;2023-06-26T07:25:55;11.60;;;7.40;;
6019;SDS011;3038;51.122;6.840;2023-06-26T07:28:20;11.90;;;7.77;;
6019;SDS011;3038;51.122;6.840;2023-06-26T07:30:46;8.80;;;7.70;;
6019;SDS011;3038;51.122;6.840;2023-06-26T07:33:11;10.50;;;7.20;;
6019;SDS011;3038;51.122;6.840;2023-06-26T07:35:37;11.20;;;6.67;;
6019;SDS011;3038;51.122;6.840;2023-06-26T07:38:05;7.53;;;6.77;;
6019;SDS011;3038;51.122;6.840;2023-06-26T07:40:30;12.67;;;8.40;;
6019;SDS011;3038;51.122;6.840;2023-06-26T07:42:56;13.47;;;7.33;;
6019;SDS011;3038;51.122;6.840;2023-06-26T07:45:23;9.57;;;6.33;;
6019;SDS011;3038;51.122;6.840;2023-06-26T07:47:48;10.90;;;7.10;;
6019;SDS011;3038;51.122;6.840;2023-06-26T07:50:14;8.17;;;6.57;;
6019;SDS011;3038;51.122;6.840;2023-06-26T07:52:44;8.27;;;7.37;;
6019;SDS011;3038;51.122;6.840;2023-06-26T07:55:10;7.93;;;7.03;;
6019;SDS011;3038;51.122;6.840;2023-06-26T07:57:36;12.30;;;7.30;;
6019;SDS011;3038;51.122;6.840;2023-06-26T08:00:02;8.60;;;7.63;;
6019;SDS011;3038;51.122;6.840;2023-06-26T08:02:40;9.70;;;6.83;;
6019;SDS011;3038;51.122;6.840;2023-06-26T08:05:06;9.10;;;7.73;;
6019;SDS011;3038;51.122;6.840;2023-06-26T08:07:33;8.80;;;6.80;;
6019;SDS011;3038;51.122;6.840;2023-06-26T08:09:59;12.37;;;7.70;;
6019;SDS011;3038;51.122;6.840;2023-06-26T08:12:24;11.00;;;8.00;;
6019;SDS011;3038;51.122;6.840;2023-06-26T08:14:50;8.80;;;7.40;;
6019;SDS011;3038;51.122;6.840;2023-06-26T08:17:15;10.43;;;7.47;;
6019;SDS011;3038;51.122;6.840;2023-06-26T08:19:40;9.80;;;8.47;;
6019;SDS011;3038;51.122;6.840;2023-06-26T08:22:06;9.23;;;7.30;;
6019;SDS011;3038;51.122;6.840;2023-06-26T08:24:32;11.13;;;8.20;;
6019;SDS011;3038;51.122;6.840;2023-06-26T08:26:57;9.93;;;8.37;;
6019;SDS011;3038;51.122;6.840;2023-06-26T08:29:23;15.67;;;8.40;;
6019;SDS011;3038;51.122;6.840;2023-06-26T08:31:49;12.50;;;8.20;;
6019;SDS011;3038;51.122;6.840;2023-06-26T08:34:15;11.27;;;8.50;;
6019;SDS011;3038;51.122;6.840;2023-06-26T08:36:40;9.63;;;8.17;;
6019;SDS011;3038;51.122;6.840;2023-06-26T08:39:05;15.97;;;9.27;;
6019;SDS011;3038;51.122;6.840;2023-06-26T08:41:31;13.70;;;8.83;;
6019;SDS011;3038;51.122;6.840;2023-06-26T08:43:56;14.73;;;8.60;;
6019;SDS011;3038;51.122;6.840;2023-06-26T08:46:22;11.70;;;8.83;;
6019;SDS011;3038;51.122;6.840;2023-06-26T08:48:49;9.57;;;8.50;;
6019;SDS011;3038;51.122;6.840;2023-06-26T08:51:19;12.57;;;8.60;;
6019;SDS011;3038;51.122;6.840;2023-06-26T08:53:50;11.53;;;8.73;;
6019;SDS011;3038;51.122;6.840;2023-06-26T08:56:21;10.33;;;9.33;;
6019;SDS011;3038;51.122;6.840;2023-06-26T08:58:49;9.30;;;8.30;;
6019;SDS011;3038;51.122;6.840;2023-06-26T09:01:14;9.70;;;8.70;;
6019;SDS011;3038;51.122;6.840;2023-06-26T09:03:40;11.80;;;8.90;;
6019;SDS011;3038;51.122;6.840;2023-06-26T09:06:09;12.23;;;8.70;;
6019;SDS011;3038;51.122;6.840;2023-06-26T09:08:34;9.60;;;8.70;;
6019;SDS011;3038;51.122;6.840;2023-06-26T09:11:00;13.03;;;8.50;;
6019;SDS011;3038;51.122;6.840;2023-06-26T09:13:25;10.67;;;8.87;;
6019;SDS011;3038;51.122;6.840;2023-06-26T09:15:54;9.80;;;8.10;;
6019;SDS011;3038;51.122;6.840;2023-06-26T09:18:20;12.43;;;9.00;;
6019;SDS011;3038;51.122;6.840;2023-06-26T09:20:47;12.57;;;9.00;;
6019;SDS011;3038;51.122;6.840;2023-06-26T09:23:14;12.30;;;9.13;;
6019;SDS011;3038;51.122;6.840;2023-06-26T09:25:40;9.80;;;8.83;;
6019;SDS011;3038;51.122;6.840;2023-06-26T09:28:06;11.60;;;9.50;;
6019;SDS011;3038;51.122;6.840;2023-06-26T09:30:32;10.23;;;9.33;;
6019;SDS011;3038;51.122;6.840;2023-06-26T09:32:57;10.33;;;9.10;;
6019;SDS011;3038;51.122;6.840;2023-06-26T09:35:41;9.67;;;8.77;;
6019;SDS011;3038;51.122;6.840;2023-06-26T09:38:07;9.47;;;8.40;;
6019;SDS011;3038;51.122;6.840;2023-06-26T09:40:32;11.27;;;9.40;;
6019;SDS011;3038;51.122;6.840;2023-06-26T09:43:06;9.83;;;8.23;;
6019;SDS011;3038;51.122;6.840;2023-06-26T09:45:33;9.87;;;8.83;;
6019;SDS011;3038;51.122;6.840;2023-06-26T09:48:02;12.33;;;9.67;;
6019;SDS011;3038;51.122;6.840;2023-06-26T09:50:28;10.37;;;8.40;;
6019;SDS011;3038;51.122;6.840;2023-06-26T09:52:55;9.40;;;8.50;;
6019;SDS011;3038;51.122;6.840;2023-06-26T09:55:21;9.33;;;8.03;;
6019;SDS011;3038;51.122;6.840;2023-06-26T09:57:47;9.27;;;7.87;;
6019;SDS011;3038;51.122;6.840;2023-06-26T10:00:14;10.43;;;7.93;;
6019;SDS011;3038;51.122;6.840;2023-06-26T10:02:41;10.60;;;7.20;;
6019;SDS011;3038;51.122;6.840;2023-06-26T10:05:08;10.30;;;8.87;;
6019;SDS011;3038;51.122;6.840;2023-06-26T10:07:34;8.00;;;6.93;;
6019;SDS011;3038;51.122;6.840;2023-06-26T10:10:01;9.20;;;6.37;;
6019;SDS011;3038;51.122;6.840;2023-06-26T10:12:28;7.13;;;6.23;;
6019;SDS011;3038;51.122;6.840;2023-06-26T10:14:55;9.63;;;7.27;;
6019;SDS011;3038;51.122;6.840;2023-06-26T10:17:22;8.23;;;7.40;;
6019;SDS011;3038;51.122;6.840;2023-06-26T10:19:52;8.00;;;7.30;;
6019;SDS011;3038;51.122;6.840;2023-06-26T10:22:21;8.73;;;6.80;;
6019;SDS011;3038;51.122;6.840;2023-06-26T10:24:54;10.10;;;7.07;;
6019;SDS011;3038;51.122;6.840;2023-06-26T10:27:24;8.63;;;6.53;;
6019;SDS011;3038;51.122;6.840;2023-06-26T10:29:56;7.03;;;6.33;;
6019;SDS011;3038;51.122;6.840;2023-06-26T10:32:24;7.43;;;6.27;;
6019;SDS011;3038;51.122;6.840;2023-06-26T10:34:51;9.20;;;6.83;;
6019;SDS011;3038;51.122;6.840;2023-06-26T10:37:17;8.63;;;6.40;;
6019;SDS011;3038;51.122;6.840;2023-06-26T10:39:50;9.33;;;6.67;;
6019;SDS011;3038;51.122;6.840;2023-06-26T10:42:17;7.77;;;6.77;;
6019;SDS011;3038;51.122;6.840;2023-06-26T10:44:44;8.13;;;7.20;;
6019;SDS011;3038;51.122;6.840;2023-06-26T10:49:55;6.97;;;6.33;;
6019;SDS011;3038;51.122;6.840;2023-06-26T10:52:20;6.70;;;5.63;;
6019;SDS011;3038;51.122;6.840;2023-06-26T10:54:46;6.30;;;5.47;;
6019;SDS011;3038;51.122;6.840;2023-06-26T10:57:11;4.77;;;4.33;;
6019;SDS011;3038;51.122;6.840;2023-06-26T10:59:49;6.57;;;5.40;;
6019;SDS011;3038;51.122;6.840;2023-06-26T11:02:47;7.50;;;5.67;;
6019;SDS011;3038;51.122;6.840;2023-06-26T11:05:23;6.67;;;4.97;;
6019;SDS011;3038;51.122;6.840;2023-06-26T11:08:05;4.90;;;4.10;;
6019;SDS011;3038;51.122;6.840;2023-06-26T11:10:51;4.97;;;4.00;;
6019;SDS011;3038;51.122;6.840;2023-06-26T11:13:18;4.90;;;4.40;;
6019;SDS011;3038;51.122;6.840;2023-06-26T11:15:48;6.37;;;4.17;;
6019;SDS011;3038;51.122;6.840;2023-06-26T11:18:15;5.53;;;4.10;;
6019;SDS011;3038;51.122;6.840;2023-06-26T11:20:41;5.13;;;3.30;;
6019;SDS011;3038;51.122;6.840;2023-06-26T11:23:10;5.20;;;4.10;;
6019;SDS011;3038;51.122;6.840;2023-06-26T11:25:37;4.93;;;3.70;;
6019;SDS011;3038;51.122;6.840;2023-06-26T11:28:03;4.03;;;3.17;;
6019;SDS011;3038;51.122;6.840;2023-06-26T11:30:30;6.40;;;3.30;;
6019;SDS011;3038;51.122;6.840;2023-06-26T11:33:06;4.30;;;2.80;;
6019;SDS011;3038;51.122;6.840;2023-06-26T11:35:32;3.93;;;3.40;;
6019;SDS011;3038;51.122;6.840;2023-06-26T11:38:02;3.57;;;2.90;;
6019;SDS011;3038;51.122;6.840;2023-06-26T11:40:32;3.17;;;2.87;;
6019;SDS011;3038;51.122;6.840;2023-06-26T11:42:59;3.50;;;2.70;;
6019;SDS011;3038;51.122;6.840;2023-06-26T11:45:25;3.60;;;3.30;;
6019;SDS011;3038;51.122;6.840;2023-06-26T11:47:54;4.60;;;2.67;;
6019;SDS011;3038;51.122;6.840;2023-06-26T11:50:21;3.50;;;3.03;;
6019;SDS011;3038;51.122;6.840;2023-06-26T11:52:52;4.73;;;3.30;;
6019;SDS011;3038;51.122;6.840;2023-06-26T11:55:25;4.97;;;3.53;;
6019;SDS011;3038;51.122;6.840;2023-06-26T11:57:54;3.60;;;2.70;;
6019;SDS011;3038;51.122;6.840;2023-06-26T12:00:21;3.53;;;3.23;;
6019;SDS011;3038;51.122;6.840;2023-06-26T12:02:48;4.50;;;2.80;;
6019;SDS011;3038;51.122;6.840;2023-06-26T12:05:15;3.73;;;3.10;;
6019;SDS011;3038;51.122;6.840;2023-06-26T12:07:41;8.03;;;3.60;;
6019;SDS011;3038;51.122;6.840;2023-06-26T12:10:10;5.40;;;2.77;;
6019;SDS011;3038;51.122;6.840;2023-06-26T12:12:36;8.00;;;3.63;;
6019;SDS011;3038;51.122;6.840;2023-06-26T12:15:03;4.10;;;3.07;;
6019;SDS011;3038;51.122;6.840;2023-06-26T12:17:29;4.00;;;2.73;;
6019;SDS011;3038;51.122;6.840;2023-06-26T12:19:54;2.83;;;2.53;;
6019;SDS011;3038;51.122;6.840;2023-06-26T12:22:20;3.43;;;3.13;;
6019;SDS011;3038;51.122;6.840;2023-06-26T12:24:45;6.97;;;3.80;;
6019;SDS011;3038;51.122;6.840;2023-06-26T12:27:13;5.93;;;2.97;;
6019;SDS011;3038;51.122;6.840;2023-06-26T12:29:41;4.87;;;2.93;;
6019;SDS011;3038;51.122;6.840;2023-06-26T12:32:10;4.10;;;2.80;;
6019;SDS011;3038;51.122;6.840;2023-06-26T12:34:37;3.40;;;2.63;;
6019;SDS011;3038;51.122;6.840;2023-06-26T12:37:10;5.47;;;2.70;;
6019;SDS011;3038;51.122;6.840;2023-06-26T12:42:18;3.17;;;1.93;;
6019;SDS011;3038;51.122;6.840;2023-06-26T12:44:44;3.43;;;1.90;;
6019;SDS011;3038;51.122;6.840;2023-06-26T12:47:09;2.80;;;2.10;;
6019;SDS011;3038;51.122;6.840;2023-06-26T12:49:38;2.93;;;2.33;;
6019;SDS011;3038;51.122;6.840;2023-06-26T12:52:06;4.23;;;2.60;;
6019;SDS011;3038;51.122;6.840;2023-06-26T12:54:36;4.73;;;2.10;;
6019;SDS011;3038;51.122;6.840;2023-06-26T12:57:03;4.20;;;2.20;;
6019;SDS011;3038;51.122;6.840;2023-06-26T12:59:29;2.97;;;2.17;;
6019;SDS011;3038;51.122;6.840;2023-06-26T13:01:56;4.33;;;2.60;;
6019;SDS011;3038;51.122;6.840;2023-06-26T13:04:21;4.30;;;2.30;;
6019;SDS011;3038;51.122;6.840;2023-06-26T13:06:47;2.83;;;2.20;;
6019;SDS011;3038;51.122;6.840;2023-06-26T13:09:12;4.10;;;2.03;;
6019;SDS011;3038;51.122;6.840;2023-06-26T13:11:38;2.63;;;1.90;;
6019;SDS011;3038;51.122;6.840;2023-06-26T13:14:03;4.10;;;2.00;;
6019;SDS011;3038;51.122;6.840;2023-06-26T13:16:29;1.90;;;1.70;;
6019;SDS011;3038;51.122;6.840;2023-06-26T13:18:55;3.50;;;2.30;;
6019;SDS011;3038;51.122;6.840;2023-06-26T13:21:21;2.50;;;1.83;;
6019;SDS011;3038;51.122;6.840;2023-06-26T13:23:46;2.83;;;2.23;;
6019;SDS011;3038;51.122;6.840;2023-06-26T13:26:12;4.50;;;2.47;;
6019;SDS011;3038;51.122;6.840;2023-06-26T13:28:37;2.77;;;2.20;;
6019;SDS011;3038;51.122;6.840;2023-06-26T13:31:03;7.60;;;2.20;;
6019;SDS011;3038;51.122;6.840;2023-06-26T13:33:29;2.70;;;1.80;;
6019;SDS011;3038;51.122;6.840;2023-06-26T13:35:55;2.57;;;2.07;;
6019;SDS011;3038;51.122;6.840;2023-06-26T13:38:20;3.17;;;2.07;;
6019;SDS011;3038;51.122;6.840;2023-06-26T13:40:56;3.23;;;1.83;;
6019;SDS011;3038;51.122;6.840;2023-06-26T13:43:28;3.90;;;2.60;;
6019;SDS011;3038;51.122;6.840;2023-06-26T13:45:54;2.93;;;2.03;;
6019;SDS011;3038;51.122;6.840;2023-06-26T13:48:20;2.03;;;1.80;;
6019;SDS011;3038;51.122;6.840;2023-06-26T13:50:46;9.70;;;2.80;;
6019;SDS011;3038;51.122;6.840;2023-06-26T13:53:12;5.23;;;2.13;;
6019;SDS011;3038;51.122;6.840;2023-06-26T13:55:38;3.83;;;2.17;;
6019;SDS011;3038;51.122;6.840;2023-06-26T13:58:04;2.87;;;2.30;;
6019;SDS011;3038;51.122;6.840;2023-06-26T14:00:30;3.17;;;2.10;;
6019;SDS011;3038;51.122;6.840;2023-06-26T14:03:08;4.10;;;1.73;;
6019;SDS011;3038;51.122;6.840;2023-06-26T14:05:35;4.50;;;1.90;;
6019;SDS011;3038;51.122;6.840;2023-06-26T14:08:02;3.30;;;2.20;;
6019;SDS011;3038;51.122;6.840;2023-06-26T14:10:29;6.90;;;2.40;;
6019;SDS011;3038;51.122;6.840;2023-06-26T14:12:55;4.90;;;3.20;;
6019;SDS011;3038;51.122;6.840;2023-06-26T14:15:21;3.10;;;2.17;;
6019;SDS011;3038;51.122;6.840;2023-06-26T14:17:46;2.50;;;1.90;;
6019;SDS011;3038;51.122;6.840;2023-06-26T14:20:15;2.57;;;1.70;;
6019;SDS011;3038;51.122;6.840;2023-06-26T14:22:41;3.27;;;2.40;;
6019;SDS011;3038;51.122;6.840;2023-06-26T14:25:09;4.23;;;2.40;;
6019;SDS011;3038;51.122;6.840;2023-06-26T14:27:35;4.23;;;2.00;;
6019;SDS011;3038;51.122;6.840;2023-06-26T14:30:02;4.33;;;2.53;;
6019;SDS011;3038;51.122;6.840;2023-06-26T14:32:28;4.90;;;3.40;;
6019;SDS011;3038;51.122;6.840;2023-06-26T14:34:54;2.87;;;2.13;;
6019;SDS011;3038;51.122;6.840;2023-06-26T14:37:20;3.73;;;2.63;;
6019;SDS011;3038;51.122;6.840;2023-06-26T14:39:45;4.43;;;2.50;;
6019;SDS011;3038;51.122;6.840;2023-06-26T14:42:11;2.67;;;1.87;;
6019;SDS011;3038;51.122;6.840;2023-06-26T14:44:36;3.30;;;2.07;;
6019;SDS011;3038;51.122;6.840;2023-06-26T14:47:02;3.63;;;2.50;;
6019;SDS011;3038;51.122;6.840;2023-06-26T14:49:28;4.43;;;2.20;;
6019;SDS011;3038;51.122;6.840;2023-06-26T14:51:55;3.60;;;2.20;;
6019;SDS011;3038;51.122;6.840;2023-06-26T14:54:20;4.60;;;2.57;;
6019;SDS011;3038;51.122;6.840;2023-06-26T14:56:46;4.10;;;2.17;;
6019;SDS011;3038;51.122;6.840;2023-06-26T14:59:11;2.90;;;2.40;;
6019;SDS011;3038;51.122;6.840;2023-06-26T15:01:38;3.33;;;2.40;;
6019;SDS011;3038;51.122;6.840;2023-06-26T15:04:04;5.73;;;2.20;;
6019;SDS011;3038;51.122;6.840;2023-06-26T15:06:33;3.60;;;2.50;;
6019;SDS011;3038;51.122;6.840;2023-06-26T15:08:59;3.03;;;2.03;;
6019;SDS011;3038;51.122;6.840;2023-06-26T15:11:25;3.13;;;2.17;;
6019;SDS011;3038;51.122;6.840;2023-06-26T15:13:51;2.50;;;1.77;;